sensor_id;sensor_type;location;lat;lon;timestamp;P1;durP1;ratioP1;P2;durP2;ratioP2
11034;SDS011;5571;48.110;-1.706;2023-11-22T00:00:56;2.07;;;1.63;;
11034;SDS011;5571;48.110;-1.706;2023-11-22T00:03:22;2.00;;;1.80;;
11034;SDS011;5571;48.110;-1.706;2023-11-22T00:05:49;4.17;;;1.87;;
11034;SDS011;5571;48.110;-1.706;2023-11-22T00:08:15;4.33;;;1.90;;
11034;SDS011;5571;48.110;-1.706;2023-11-22T00:10:41;3.53;;;2.03;;
11034;SDS011;5571;48.110;-1.706;2023-11-22T00:13:06;4.07;;;2.10;;
11034;SDS011;5571;48.110;-1.706;2023-11-22T00:15:32;5.63;;;2.27;;
11034;SDS011;5571;48.110;-1.706;2023-11-22T00:17:57;3.10;;;1.90;;
11034;SDS011;5571;48.110;-1.706;2023-11-22T00:20:27;7.43;;;2.57;;
11034;SDS011;5571;48.110;-1.706;2023-11-22T00:22:53;5.50;;;2.30;;
11034;SDS011;5571;48.110;-1.706;2023-11-22T00:25:18;7.77;;;1.93;;
11034;SDS011;5571;48.110;-1.706;2023-11-22T00:27:44;4.00;;;2.13;;
11034;SDS011;5571;48.110;-1.706;2023-11-22T00:30:10;5.03;;;2.53;;
11034;SDS011;5571;48.110;-1.706;2023-11-22T00:32:36;6.87;;;2.23;;
11034;SDS011;5571;48.110;-1.706;2023-11-22T00:35:01;12.93;;;2.80;;
11034;SDS011;5571;48.110;-1.706;2023-11-22T00:37:27;6.57;;;2.70;;
11034;SDS011;5571;48.110;-1.706;2023-11-22T00:39:53;6.60;;;2.30;;
11034;SDS011;5571;48.110;-1.706;2023-11-22T00:42:18;12.43;;;2.53;;
11034;SDS011;5571;48.110;-1.706;2023-11-22T00:44:45;9.00;;;2.33;;
11034;SDS011;5571;48.110;-1.706;2023-11-22T00:47:12;9.47;;;2.60;;
11034;SDS011;5571;48.110;-1.706;2023-11-22T00:49:37;9.20;;;2.90;;
11034;SDS011;5571;48.110;-1.706;2023-11-22T00:52:03;10.67;;;2.70;;
11034;SDS011;5571;48.110;-1.706;2023-11-22T00:54:29;7.73;;;2.43;;
11034;SDS011;5571;48.110;-1.706;2023-11-22T00:56:55;10.73;;;2.77;;
11034;SDS011;5571;48.110;-1.706;2023-11-22T00:59:20;6.27;;;2.10;;
11034;SDS011;5571;48.110;-1.706;2023-11-22T01:01:46;7.77;;;2.40;;
11034;SDS011;5571;48.110;-1.706;2023-11-22T01:04:11;6.70;;;2.33;;
11034;SDS011;5571;48.110;-1.706;2023-11-22T01:06:38;10.30;;;2.73;;
11034;SDS011;5571;48.110;-1.706;2023-11-22T01:09:05;11.90;;;2.47;;
11034;SDS011;5571;48.110;-1.706;2023-11-22T01:11:33;8.23;;;2.33;;
11034;SDS011;5571;48.110;-1.706;2023-11-22T01:13:59;6.87;;;2.20;;
11034;SDS011;5571;48.110;-1.706;2023-11-22T01:16:25;4.73;;;2.07;;
11034;SDS011;5571;48.110;-1.706;2023-11-22T01:18:51;7.30;;;2.70;;
11034;SDS011;5571;48.110;-1.706;2023-11-22T01:21:17;8.73;;;2.40;;
11034;SDS011;5571;48.110;-1.706;2023-11-22T01:23:44;6.73;;;2.60;;
11034;SDS011;5571;48.110;-1.706;2023-11-22T01:26:10;7.77;;;2.43;;
11034;SDS011;5571;48.110;-1.706;2023-11-22T01:28:36;6.50;;;2.37;;
11034;SDS011;5571;48.110;-1.706;2023-11-22T01:31:02;9.73;;;2.63;;
11034;SDS011;5571;48.110;-1.706;2023-11-22T01:33:28;6.57;;;2.10;;
11034;SDS011;5571;48.110;-1.706;2023-11-22T01:35:54;12.77;;;2.47;;
11034;SDS011;5571;48.110;-1.706;2023-11-22T01:38:20;8.43;;;2.10;;
11034;SDS011;5571;48.110;-1.706;2023-11-22T01:40:46;8.77;;;2.90;;
11034;SDS011;5571;48.110;-1.706;2023-11-22T01:43:17;9.87;;;2.50;;
11034;SDS011;5571;48.110;-1.706;2023-11-22T01:45:44;12.20;;;2.30;;
11034;SDS011;5571;48.110;-1.706;2023-11-22T01:48:10;9.13;;;2.30;;
11034;SDS011;5571;48.110;-1.706;2023-11-22T01:50:37;5.40;;;2.00;;
11034;SDS011;5571;48.110;-1.706;2023-11-22T01:53:05;11.00;;;2.63;;
11034;SDS011;5571;48.110;-1.706;2023-11-22T01:55:30;9.67;;;2.07;;
11034;SDS011;5571;48.110;-1.706;2023-11-22T01:57:57;7.30;;;2.30;;
11034;SDS011;5571;48.110;-1.706;2023-11-22T02:00:23;6.90;;;2.33;;
11034;SDS011;5571;48.110;-1.706;2023-11-22T02:02:51;9.73;;;1.90;;
11034;SDS011;5571;48.110;-1.706;2023-11-22T02:05:18;8.30;;;2.27;;
11034;SDS011;5571;48.110;-1.706;2023-11-22T02:07:43;10.93;;;2.60;;
11034;SDS011;5571;48.110;-1.706;2023-11-22T02:10:09;5.27;;;2.00;;
11034;SDS011;5571;48.110;-1.706;2023-11-22T02:12:35;8.30;;;2.20;;
11034;SDS011;5571;48.110;-1.706;2023-11-22T02:15:01;10.70;;;2.50;;
11034;SDS011;5571;48.110;-1.706;2023-11-22T02:17:28;8.47;;;2.27;;
11034;SDS011;5571;48.110;-1.706;2023-11-22T02:19:54;9.53;;;2.50;;
11034;SDS011;5571;48.110;-1.706;2023-11-22T02:22:19;8.10;;;2.30;;
11034;SDS011;5571;48.110;-1.706;2023-11-22T02:24:46;11.53;;;2.40;;
11034;SDS011;5571;48.110;-1.706;2023-11-22T02:27:12;8.90;;;2.23;;
11034;SDS011;5571;48.110;-1.706;2023-11-22T02:29:37;11.63;;;2.00;;
11034;SDS011;5571;48.110;-1.706;2023-11-22T02:32:03;7.23;;;2.00;;
11034;SDS011;5571;48.110;-1.706;2023-11-22T02:34:29;7.57;;;2.00;;
11034;SDS011;5571;48.110;-1.706;2023-11-22T02:36:55;12.93;;;2.10;;
11034;SDS011;5571;48.110;-1.706;2023-11-22T02:39:21;6.80;;;2.20;;
11034;SDS011;5571;48.110;-1.706;2023-11-22T02:41:58;13.43;;;2.40;;
11034;SDS011;5571;48.110;-1.706;2023-11-22T02:44:23;7.97;;;1.97;;
11034;SDS011;5571;48.110;-1.706;2023-11-22T02:46:49;5.37;;;2.40;;
11034;SDS011;5571;48.110;-1.706;2023-11-22T02:49:14;8.67;;;2.40;;
11034;SDS011;5571;48.110;-1.706;2023-11-22T02:51:40;8.83;;;2.33;;
11034;SDS011;5571;48.110;-1.706;2023-11-22T02:54:06;10.97;;;2.50;;
11034;SDS011;5571;48.110;-1.706;2023-11-22T02:56:31;9.40;;;2.40;;
11034;SDS011;5571;48.110;-1.706;2023-11-22T02:58:57;5.57;;;2.07;;
11034;SDS011;5571;48.110;-1.706;2023-11-22T03:01:23;13.93;;;4.97;;
11034;SDS011;5571;48.110;-1.706;2023-11-22T03:03:48;13.00;;;4.30;;
11034;SDS011;5571;48.110;-1.706;2023-11-22T03:06:14;20.43;;;8.93;;
11034;SDS011;5571;48.110;-1.706;2023-11-22T03:08:39;12.10;;;6.77;;
11034;SDS011;5571;48.110;-1.706;2023-11-22T03:11:05;14.80;;;4.60;;
11034;SDS011;5571;48.110;-1.706;2023-11-22T03:13:31;12.13;;;3.07;;
11034;SDS011;5571;48.110;-1.706;2023-11-22T03:15:58;10.10;;;2.67;;
11034;SDS011;5571;48.110;-1.706;2023-11-22T03:18:24;10.50;;;2.17;;
11034;SDS011;5571;48.110;-1.706;2023-11-22T03:20:51;10.00;;;2.40;;
11034;SDS011;5571;48.110;-1.706;2023-11-22T03:23:19;9.30;;;2.20;;
11034;SDS011;5571;48.110;-1.706;2023-11-22T03:25:45;11.63;;;2.37;;
11034;SDS011;5571;48.110;-1.706;2023-11-22T03:28:11;11.60;;;2.80;;
11034;SDS011;5571;48.110;-1.706;2023-11-22T03:30:37;10.87;;;2.77;;
11034;SDS011;5571;48.110;-1.706;2023-11-22T03:33:04;8.53;;;2.63;;
11034;SDS011;5571;48.110;-1.706;2023-11-22T03:35:30;13.57;;;2.50;;
11034;SDS011;5571;48.110;-1.706;2023-11-22T03:37:56;8.97;;;2.67;;
11034;SDS011;5571;48.110;-1.706;2023-11-22T03:40:21;9.97;;;2.37;;
11034;SDS011;5571;48.110;-1.706;2023-11-22T03:42:47;9.07;;;2.70;;
11034;SDS011;5571;48.110;-1.706;2023-11-22T03:45:13;9.53;;;2.03;;
11034;SDS011;5571;48.110;-1.706;2023-11-22T03:47:39;9.37;;;2.30;;
11034;SDS011;5571;48.110;-1.706;2023-11-22T03:50:05;6.57;;;2.30;;
11034;SDS011;5571;48.110;-1.706;2023-11-22T03:52:31;5.37;;;1.97;;
11034;SDS011;5571;48.110;-1.706;2023-11-22T03:54:57;10.00;;;2.80;;
11034;SDS011;5571;48.110;-1.706;2023-11-22T03:57:23;7.73;;;2.60;;
11034;SDS011;5571;48.110;-1.706;2023-11-22T03:59:48;10.77;;;3.27;;
11034;SDS011;5571;48.110;-1.706;2023-11-22T04:02:14;10.17;;;2.80;;
11034;SDS011;5571;48.110;-1.706;2023-11-22T04:04:39;9.57;;;2.27;;
11034;SDS011;5571;48.110;-1.706;2023-11-22T04:07:06;12.00;;;2.20;;
11034;SDS011;5571;48.110;-1.706;2023-11-22T04:09:32;6.90;;;2.30;;
11034;SDS011;5571;48.110;-1.706;2023-11-22T04:11:58;6.03;;;2.37;;
11034;SDS011;5571;48.110;-1.706;2023-11-22T04:14:24;6.47;;;2.00;;
11034;SDS011;5571;48.110;-1.706;2023-11-22T04:16:52;9.73;;;2.67;;
11034;SDS011;5571;48.110;-1.706;2023-11-22T04:19:18;8.57;;;2.33;;
11034;SDS011;5571;48.110;-1.706;2023-11-22T04:21:43;13.40;;;2.53;;
11034;SDS011;5571;48.110;-1.706;2023-11-22T04:24:09;9.53;;;2.40;;
11034;SDS011;5571;48.110;-1.706;2023-11-22T04:26:35;9.70;;;2.20;;
11034;SDS011;5571;48.110;-1.706;2023-11-22T04:29:01;9.00;;;2.10;;
11034;SDS011;5571;48.110;-1.706;2023-11-22T04:31:27;8.13;;;2.20;;
11034;SDS011;5571;48.110;-1.706;2023-11-22T04:33:52;8.60;;;2.17;;
11034;SDS011;5571;48.110;-1.706;2023-11-22T04:36:19;7.10;;;2.33;;
11034;SDS011;5571;48.110;-1.706;2023-11-22T04:38:45;4.93;;;2.20;;
11034;SDS011;5571;48.110;-1.706;2023-11-22T04:41:11;7.73;;;1.90;;
11034;SDS011;5571;48.110;-1.706;2023-11-22T04:43:37;8.73;;;2.10;;
11034;SDS011;5571;48.110;-1.706;2023-11-22T04:46:02;11.67;;;2.20;;
11034;SDS011;5571;48.110;-1.706;2023-11-22T04:48:29;9.77;;;2.23;;
11034;SDS011;5571;48.110;-1.706;2023-11-22T04:50:55;9.77;;;2.00;;
11034;SDS011;5571;48.110;-1.706;2023-11-22T04:53:20;7.20;;;2.03;;
11034;SDS011;5571;48.110;-1.706;2023-11-22T04:55:47;8.50;;;2.30;;
11034;SDS011;5571;48.110;-1.706;2023-11-22T04:58:14;8.37;;;2.07;;
11034;SDS011;5571;48.110;-1.706;2023-11-22T05:00:39;7.57;;;2.07;;
11034;SDS011;5571;48.110;-1.706;2023-11-22T05:03:05;10.97;;;2.17;;
11034;SDS011;5571;48.110;-1.706;2023-11-22T05:05:31;8.53;;;2.07;;
11034;SDS011;5571;48.110;-1.706;2023-11-22T05:07:57;7.30;;;1.93;;
11034;SDS011;5571;48.110;-1.706;2023-11-22T05:10:22;11.00;;;2.20;;
11034;SDS011;5571;48.110;-1.706;2023-11-22T05:12:49;7.97;;;2.10;;
11034;SDS011;5571;48.110;-1.706;2023-11-22T05:15:15;8.30;;;1.97;;
11034;SDS011;5571;48.110;-1.706;2023-11-22T05:17:41;9.23;;;2.53;;
11034;SDS011;5571;48.110;-1.706;2023-11-22T05:20:07;4.50;;;1.90;;
11034;SDS011;5571;48.110;-1.706;2023-11-22T05:22:34;8.60;;;2.37;;
11034;SDS011;5571;48.110;-1.706;2023-11-22T05:25:01;6.00;;;2.20;;
11034;SDS011;5571;48.110;-1.706;2023-11-22T05:27:26;4.00;;;2.00;;
11034;SDS011;5571;48.110;-1.706;2023-11-22T05:29:53;4.50;;;2.10;;
11034;SDS011;5571;48.110;-1.706;2023-11-22T05:32:19;5.17;;;1.90;;
11034;SDS011;5571;48.110;-1.706;2023-11-22T05:34:45;6.60;;;2.10;;
11034;SDS011;5571;48.110;-1.706;2023-11-22T05:37:11;5.37;;;2.13;;
11034;SDS011;5571;48.110;-1.706;2023-11-22T05:39:37;7.73;;;2.07;;
11034;SDS011;5571;48.110;-1.706;2023-11-22T05:42:03;7.13;;;2.63;;
11034;SDS011;5571;48.110;-1.706;2023-11-22T05:44:28;6.53;;;2.30;;
11034;SDS011;5571;48.110;-1.706;2023-11-22T05:46:54;6.40;;;1.80;;
11034;SDS011;5571;48.110;-1.706;2023-11-22T05:49:19;7.27;;;2.47;;
11034;SDS011;5571;48.110;-1.706;2023-11-22T05:51:45;6.90;;;2.40;;
11034;SDS011;5571;48.110;-1.706;2023-11-22T05:54:12;6.00;;;2.10;;
11034;SDS011;5571;48.110;-1.706;2023-11-22T05:56:38;7.63;;;2.23;;
11034;SDS011;5571;48.110;-1.706;2023-11-22T05:59:03;5.53;;;2.00;;
11034;SDS011;5571;48.110;-1.706;2023-11-22T06:01:29;8.10;;;2.10;;
11034;SDS011;5571;48.110;-1.706;2023-11-22T06:03:55;6.03;;;1.80;;
11034;SDS011;5571;48.110;-1.706;2023-11-22T06:06:21;8.40;;;2.10;;
11034;SDS011;5571;48.110;-1.706;2023-11-22T06:08:47;6.93;;;1.90;;
11034;SDS011;5571;48.110;-1.706;2023-11-22T06:11:13;8.83;;;2.13;;
11034;SDS011;5571;48.110;-1.706;2023-11-22T06:13:40;10.57;;;2.27;;
11034;SDS011;5571;48.110;-1.706;2023-11-22T06:16:12;5.90;;;1.90;;
11034;SDS011;5571;48.110;-1.706;2023-11-22T06:18:38;5.53;;;1.47;;
11034;SDS011;5571;48.110;-1.706;2023-11-22T06:21:08;4.27;;;1.97;;
11034;SDS011;5571;48.110;-1.706;2023-11-22T06:23:34;5.07;;;1.70;;
11034;SDS011;5571;48.110;-1.706;2023-11-22T06:26:00;5.30;;;1.90;;
11034;SDS011;5571;48.110;-1.706;2023-11-22T06:28:26;9.63;;;2.07;;
11034;SDS011;5571;48.110;-1.706;2023-11-22T06:30:52;5.03;;;2.20;;
11034;SDS011;5571;48.110;-1.706;2023-11-22T06:33:18;9.23;;;4.80;;
11034;SDS011;5571;48.110;-1.706;2023-11-22T06:35:43;12.30;;;4.23;;
11034;SDS011;5571;48.110;-1.706;2023-11-22T06:38:10;8.53;;;3.50;;
11034;SDS011;5571;48.110;-1.706;2023-11-22T06:40:36;6.10;;;2.30;;
11034;SDS011;5571;48.110;-1.706;2023-11-22T06:43:01;12.40;;;5.03;;
11034;SDS011;5571;48.110;-1.706;2023-11-22T06:45:29;9.17;;;3.00;;
11034;SDS011;5571;48.110;-1.706;2023-11-22T06:47:56;3.33;;;2.10;;
11034;SDS011;5571;48.110;-1.706;2023-11-22T06:50:22;5.77;;;1.93;;
11034;SDS011;5571;48.110;-1.706;2023-11-22T06:52:49;7.93;;;1.97;;
11034;SDS011;5571;48.110;-1.706;2023-11-22T06:55:15;6.97;;;2.00;;
11034;SDS011;5571;48.110;-1.706;2023-11-22T06:57:40;9.03;;;2.20;;
11034;SDS011;5571;48.110;-1.706;2023-11-22T07:00:06;8.23;;;1.93;;
11034;SDS011;5571;48.110;-1.706;2023-11-22T07:02:34;6.27;;;1.90;;
11034;SDS011;5571;48.110;-1.706;2023-11-22T07:05:03;9.20;;;2.37;;
11034;SDS011;5571;48.110;-1.706;2023-11-22T07:07:36;8.47;;;1.80;;
11034;SDS011;5571;48.110;-1.706;2023-11-22T07:10:02;10.97;;;2.40;;
11034;SDS011;5571;48.110;-1.706;2023-11-22T07:12:30;5.83;;;2.07;;
11034;SDS011;5571;48.110;-1.706;2023-11-22T07:15:02;11.30;;;2.50;;
11034;SDS011;5571;48.110;-1.706;2023-11-22T07:17:30;10.07;;;2.47;;
11034;SDS011;5571;48.110;-1.706;2023-11-22T07:19:58;10.17;;;2.20;;
11034;SDS011;5571;48.110;-1.706;2023-11-22T07:22:24;5.67;;;2.20;;
11034;SDS011;5571;48.110;-1.706;2023-11-22T07:24:50;5.87;;;2.20;;
11034;SDS011;5571;48.110;-1.706;2023-11-22T07:27:19;9.07;;;2.40;;
11034;SDS011;5571;48.110;-1.706;2023-11-22T07:29:45;10.33;;;2.03;;
11034;SDS011;5571;48.110;-1.706;2023-11-22T07:32:11;7.33;;;2.30;;
11034;SDS011;5571;48.110;-1.706;2023-11-22T07:34:37;7.00;;;2.10;;
11034;SDS011;5571;48.110;-1.706;2023-11-22T07:37:04;6.77;;;2.70;;
11034;SDS011;5571;48.110;-1.706;2023-11-22T07:39:34;11.23;;;2.70;;
11034;SDS011;5571;48.110;-1.706;2023-11-22T07:42:00;9.43;;;2.60;;
11034;SDS011;5571;48.110;-1.706;2023-11-22T07:44:27;7.70;;;2.33;;
11034;SDS011;5571;48.110;-1.706;2023-11-22T07:46:52;9.33;;;2.23;;
11034;SDS011;5571;48.110;-1.706;2023-11-22T07:49:21;6.57;;;2.13;;
11034;SDS011;5571;48.110;-1.706;2023-11-22T07:51:47;12.80;;;3.03;;
11034;SDS011;5571;48.110;-1.706;2023-11-22T07:54:16;9.97;;;2.33;;
11034;SDS011;5571;48.110;-1.706;2023-11-22T07:56:50;8.97;;;2.37;;
11034;SDS011;5571;48.110;-1.706;2023-11-22T07:59:18;5.90;;;2.30;;
11034;SDS011;5571;48.110;-1.706;2023-11-22T08:01:45;7.77;;;2.20;;
11034;SDS011;5571;48.110;-1.706;2023-11-22T08:04:12;7.77;;;2.03;;
11034;SDS011;5571;48.110;-1.706;2023-11-22T08:06:39;9.00;;;2.60;;
11034;SDS011;5571;48.110;-1.706;2023-11-22T08:09:05;8.07;;;2.37;;
11034;SDS011;5571;48.110;-1.706;2023-11-22T08:11:33;9.53;;;2.47;;
11034;SDS011;5571;48.110;-1.706;2023-11-22T08:13:59;7.70;;;2.37;;
11034;SDS011;5571;48.110;-1.706;2023-11-22T08:16:25;9.33;;;2.10;;
11034;SDS011;5571;48.110;-1.706;2023-11-22T08:18:51;14.50;;;2.40;;
11034;SDS011;5571;48.110;-1.706;2023-11-22T08:21:17;16.87;;;2.63;;
11034;SDS011;5571;48.110;-1.706;2023-11-22T08:23:43;10.60;;;2.33;;
11034;SDS011;5571;48.110;-1.706;2023-11-22T08:26:11;10.10;;;2.60;;
11034;SDS011;5571;48.110;-1.706;2023-11-22T08:28:37;14.23;;;3.23;;
11034;SDS011;5571;48.110;-1.706;2023-11-22T08:31:02;6.87;;;2.10;;
11034;SDS011;5571;48.110;-1.706;2023-11-22T08:33:34;6.90;;;2.33;;
11034;SDS011;5571;48.110;-1.706;2023-11-22T08:36:00;7.20;;;2.47;;
11034;SDS011;5571;48.110;-1.706;2023-11-22T08:38:27;7.27;;;1.90;;
11034;SDS011;5571;48.110;-1.706;2023-11-22T08:40:53;11.80;;;2.50;;
11034;SDS011;5571;48.110;-1.706;2023-11-22T08:43:20;10.57;;;2.27;;
11034;SDS011;5571;48.110;-1.706;2023-11-22T08:45:48;7.23;;;2.17;;
11034;SDS011;5571;48.110;-1.706;2023-11-22T08:48:14;6.60;;;2.77;;
11034;SDS011;5571;48.110;-1.706;2023-11-22T08:50:40;10.07;;;2.50;;
11034;SDS011;5571;48.110;-1.706;2023-11-22T08:53:06;7.63;;;2.00;;
11034;SDS011;5571;48.110;-1.706;2023-11-22T08:55:33;7.60;;;2.07;;
11034;SDS011;5571;48.110;-1.706;2023-11-22T08:57:59;7.63;;;2.23;;
11034;SDS011;5571;48.110;-1.706;2023-11-22T09:00:25;8.33;;;2.67;;
11034;SDS011;5571;48.110;-1.706;2023-11-22T09:02:53;9.00;;;2.17;;
11034;SDS011;5571;48.110;-1.706;2023-11-22T09:05:20;4.77;;;2.17;;
11034;SDS011;5571;48.110;-1.706;2023-11-22T09:07:46;5.63;;;1.90;;
11034;SDS011;5571;48.110;-1.706;2023-11-22T09:10:12;6.73;;;2.70;;
11034;SDS011;5571;48.110;-1.706;2023-11-22T09:12:39;8.00;;;2.17;;
11034;SDS011;5571;48.110;-1.706;2023-11-22T09:15:06;4.23;;;1.80;;
11034;SDS011;5571;48.110;-1.706;2023-11-22T09:17:39;8.40;;;2.10;;
11034;SDS011;5571;48.110;-1.706;2023-11-22T09:20:14;6.00;;;2.53;;
11034;SDS011;5571;48.110;-1.706;2023-11-22T09:22:44;5.23;;;2.30;;
11034;SDS011;5571;48.110;-1.706;2023-11-22T09:27:48;6.23;;;2.23;;
11034;SDS011;5571;48.110;-1.706;2023-11-22T09:30:18;6.00;;;2.20;;
11034;SDS011;5571;48.110;-1.706;2023-11-22T09:33:07;5.27;;;2.47;;
11034;SDS011;5571;48.110;-1.706;2023-11-22T09:35:34;11.00;;;2.73;;
11034;SDS011;5571;48.110;-1.706;2023-11-22T09:38:01;8.87;;;2.70;;
11034;SDS011;5571;48.110;-1.706;2023-11-22T09:40:29;5.57;;;2.27;;
11034;SDS011;5571;48.110;-1.706;2023-11-22T09:43:00;7.47;;;2.53;;
11034;SDS011;5571;48.110;-1.706;2023-11-22T09:45:27;4.80;;;2.03;;
11034;SDS011;5571;48.110;-1.706;2023-11-22T09:47:55;10.83;;;2.50;;
11034;SDS011;5571;48.110;-1.706;2023-11-22T09:50:29;4.93;;;2.10;;
11034;SDS011;5571;48.110;-1.706;2023-11-22T09:53:09;11.93;;;2.70;;
11034;SDS011;5571;48.110;-1.706;2023-11-22T09:55:37;5.67;;;2.23;;
11034;SDS011;5571;48.110;-1.706;2023-11-22T09:58:04;8.50;;;2.70;;
11034;SDS011;5571;48.110;-1.706;2023-11-22T10:00:31;9.57;;;2.73;;
11034;SDS011;5571;48.110;-1.706;2023-11-22T10:02:57;8.03;;;2.30;;
11034;SDS011;5571;48.110;-1.706;2023-11-22T10:05:23;7.63;;;2.00;;
11034;SDS011;5571;48.110;-1.706;2023-11-22T10:07:49;9.23;;;2.73;;
11034;SDS011;5571;48.110;-1.706;2023-11-22T10:10:16;7.87;;;2.30;;
11034;SDS011;5571;48.110;-1.706;2023-11-22T10:12:45;11.73;;;2.57;;
11034;SDS011;5571;48.110;-1.706;2023-11-22T10:15:14;5.50;;;2.20;;
11034;SDS011;5571;48.110;-1.706;2023-11-22T10:17:41;3.40;;;2.00;;
11034;SDS011;5571;48.110;-1.706;2023-11-22T10:20:36;9.03;;;2.67;;
11034;SDS011;5571;48.110;-1.706;2023-11-22T10:23:03;8.30;;;2.33;;
11034;SDS011;5571;48.110;-1.706;2023-11-22T10:25:33;11.37;;;2.47;;
11034;SDS011;5571;48.110;-1.706;2023-11-22T10:27:59;6.33;;;2.10;;
11034;SDS011;5571;48.110;-1.706;2023-11-22T10:30:27;7.77;;;2.37;;
11034;SDS011;5571;48.110;-1.706;2023-11-22T10:32:53;6.10;;;2.40;;
11034;SDS011;5571;48.110;-1.706;2023-11-22T10:35:20;9.60;;;2.60;;
11034;SDS011;5571;48.110;-1.706;2023-11-22T10:37:47;5.17;;;2.37;;
11034;SDS011;5571;48.110;-1.706;2023-11-22T10:40:13;10.17;;;2.43;;
11034;SDS011;5571;48.110;-1.706;2023-11-22T10:42:41;10.87;;;3.17;;
11034;SDS011;5571;48.110;-1.706;2023-11-22T10:45:08;4.73;;;2.13;;
11034;SDS011;5571;48.110;-1.706;2023-11-22T10:47:38;8.37;;;2.33;;
11034;SDS011;5571;48.110;-1.706;2023-11-22T10:50:06;6.53;;;2.17;;
11034;SDS011;5571;48.110;-1.706;2023-11-22T10:52:33;8.93;;;2.37;;
11034;SDS011;5571;48.110;-1.706;2023-11-22T10:55:03;6.60;;;2.20;;
11034;SDS011;5571;48.110;-1.706;2023-11-22T10:57:31;5.23;;;2.27;;
11034;SDS011;5571;48.110;-1.706;2023-11-22T11:00:02;5.80;;;2.00;;
11034;SDS011;5571;48.110;-1.706;2023-11-22T11:02:36;5.17;;;2.33;;
11034;SDS011;5571;48.110;-1.706;2023-11-22T11:05:14;4.50;;;2.37;;
11034;SDS011;5571;48.110;-1.706;2023-11-22T11:07:44;6.90;;;2.30;;
11034;SDS011;5571;48.110;-1.706;2023-11-22T11:10:20;14.60;;;2.67;;
11034;SDS011;5571;48.110;-1.706;2023-11-22T11:12:48;6.13;;;2.20;;
11034;SDS011;5571;48.110;-1.706;2023-11-22T11:15:14;7.10;;;2.43;;
11034;SDS011;5571;48.110;-1.706;2023-11-22T11:17:42;12.07;;;2.77;;
11034;SDS011;5571;48.110;-1.706;2023-11-22T11:20:12;9.87;;;2.53;;
11034;SDS011;5571;48.110;-1.706;2023-11-22T11:22:40;5.50;;;1.90;;
11034;SDS011;5571;48.110;-1.706;2023-11-22T11:25:06;11.80;;;3.27;;
11034;SDS011;5571;48.110;-1.706;2023-11-22T11:27:38;12.57;;;2.53;;
11034;SDS011;5571;48.110;-1.706;2023-11-22T11:32:57;5.93;;;2.07;;
11034;SDS011;5571;48.110;-1.706;2023-11-22T11:35:39;8.70;;;2.23;;
11034;SDS011;5571;48.110;-1.706;2023-11-22T11:38:07;7.57;;;1.97;;
11034;SDS011;5571;48.110;-1.706;2023-11-22T11:40:34;6.20;;;1.97;;
11034;SDS011;5571;48.110;-1.706;2023-11-22T11:43:01;8.40;;;2.30;;
11034;SDS011;5571;48.110;-1.706;2023-11-22T11:45:27;4.93;;;2.23;;
11034;SDS011;5571;48.110;-1.706;2023-11-22T11:47:54;4.83;;;2.00;;
11034;SDS011;5571;48.110;-1.706;2023-11-22T11:50:22;7.13;;;2.20;;
11034;SDS011;5571;48.110;-1.706;2023-11-22T11:52:48;4.73;;;2.17;;
11034;SDS011;5571;48.110;-1.706;2023-11-22T11:55:14;5.03;;;1.50;;
11034;SDS011;5571;48.110;-1.706;2023-11-22T11:57:40;7.67;;;2.00;;
11034;SDS011;5571;48.110;-1.706;2023-11-22T12:00:07;6.00;;;1.90;;
11034;SDS011;5571;48.110;-1.706;2023-11-22T12:02:34;4.03;;;1.90;;
11034;SDS011;5571;48.110;-1.706;2023-11-22T12:05:00;5.47;;;1.77;;
11034;SDS011;5571;48.110;-1.706;2023-11-22T12:07:31;4.43;;;1.97;;
11034;SDS011;5571;48.110;-1.706;2023-11-22T12:09:57;4.10;;;1.57;;
11034;SDS011;5571;48.110;-1.706;2023-11-22T12:12:22;7.40;;;1.90;;
11034;SDS011;5571;48.110;-1.706;2023-11-22T12:14:48;6.73;;;2.00;;
11034;SDS011;5571;48.110;-1.706;2023-11-22T12:17:14;7.77;;;1.90;;
11034;SDS011;5571;48.110;-1.706;2023-11-22T12:19:41;5.87;;;2.00;;
11034;SDS011;5571;48.110;-1.706;2023-11-22T12:22:07;4.47;;;1.60;;
11034;SDS011;5571;48.110;-1.706;2023-11-22T12:24:33;6.20;;;1.97;;
11034;SDS011;5571;48.110;-1.706;2023-11-22T12:26:59;7.10;;;1.77;;
11034;SDS011;5571;48.110;-1.706;2023-11-22T12:29:25;6.60;;;1.80;;
11034;SDS011;5571;48.110;-1.706;2023-11-22T12:31:51;4.30;;;2.00;;
11034;SDS011;5571;48.110;-1.706;2023-11-22T12:34:20;6.73;;;1.80;;
11034;SDS011;5571;48.110;-1.706;2023-11-22T12:36:47;7.97;;;1.90;;
11034;SDS011;5571;48.110;-1.706;2023-11-22T12:39:12;4.33;;;1.70;;
11034;SDS011;5571;48.110;-1.706;2023-11-22T12:41:45;5.73;;;1.93;;
11034;SDS011;5571;48.110;-1.706;2023-11-22T12:44:12;6.13;;;1.77;;
11034;SDS011;5571;48.110;-1.706;2023-11-22T12:47:11;8.40;;;3.20;;
11034;SDS011;5571;48.110;-1.706;2023-11-22T12:49:42;3.63;;;1.70;;
11034;SDS011;5571;48.110;-1.706;2023-11-22T12:52:10;7.43;;;1.70;;
11034;SDS011;5571;48.110;-1.706;2023-11-22T12:54:37;3.57;;;1.60;;
11034;SDS011;5571;48.110;-1.706;2023-11-22T12:57:03;5.07;;;1.67;;
11034;SDS011;5571;48.110;-1.706;2023-11-22T12:59:35;4.50;;;1.80;;
11034;SDS011;5571;48.110;-1.706;2023-11-22T13:02:00;4.27;;;1.40;;
11034;SDS011;5571;48.110;-1.706;2023-11-22T13:04:27;2.27;;;1.53;;
11034;SDS011;5571;48.110;-1.706;2023-11-22T13:06:54;4.83;;;1.73;;
11034;SDS011;5571;48.110;-1.706;2023-11-22T13:09:20;3.57;;;1.70;;
11034;SDS011;5571;48.110;-1.706;2023-11-22T13:11:46;2.87;;;1.37;;
11034;SDS011;5571;48.110;-1.706;2023-11-22T13:14:12;5.63;;;1.92;;
11034;SDS011;5571;48.110;-1.706;2023-11-22T13:16:41;6.70;;;1.80;;
11034;SDS011;5571;48.110;-1.706;2023-11-22T13:19:07;3.83;;;1.30;;
11034;SDS011;5571;48.110;-1.706;2023-11-22T13:21:34;4.70;;;1.60;;
11034;SDS011;5571;48.110;-1.706;2023-11-22T13:24:00;5.90;;;1.40;;
11034;SDS011;5571;48.110;-1.706;2023-11-22T13:26:26;5.60;;;1.80;;
11034;SDS011;5571;48.110;-1.706;2023-11-22T13:28:52;3.97;;;1.60;;
11034;SDS011;5571;48.110;-1.706;2023-11-22T13:31:19;2.90;;;1.50;;
11034;SDS011;5571;48.110;-1.706;2023-11-22T13:33:46;4.37;;;1.50;;
11034;SDS011;5571;48.110;-1.706;2023-11-22T13:36:12;7.80;;;1.90;;
11034;SDS011;5571;48.110;-1.706;2023-11-22T13:38:40;4.33;;;1.60;;
11034;SDS011;5571;48.110;-1.706;2023-11-22T13:41:05;3.03;;;1.40;;
11034;SDS011;5571;48.110;-1.706;2023-11-22T13:43:31;4.53;;;1.40;;
11034;SDS011;5571;48.110;-1.706;2023-11-22T13:46:00;5.27;;;1.73;;
11034;SDS011;5571;48.110;-1.706;2023-11-22T13:48:26;3.40;;;1.60;;
11034;SDS011;5571;48.110;-1.706;2023-11-22T13:50:51;3.73;;;1.40;;
11034;SDS011;5571;48.110;-1.706;2023-11-22T13:53:17;2.83;;;1.27;;
11034;SDS011;5571;48.110;-1.706;2023-11-22T13:55:47;7.20;;;1.47;;
11034;SDS011;5571;48.110;-1.706;2023-11-22T13:58:13;4.77;;;1.60;;
11034;SDS011;5571;48.110;-1.706;2023-11-22T14:00:39;4.27;;;1.57;;
11034;SDS011;5571;48.110;-1.706;2023-11-22T14:03:04;2.23;;;1.23;;
11034;SDS011;5571;48.110;-1.706;2023-11-22T14:05:35;2.80;;;1.60;;
11034;SDS011;5571;48.110;-1.706;2023-11-22T14:08:03;4.28;;;1.50;;
11034;SDS011;5571;48.110;-1.706;2023-11-22T14:10:29;4.13;;;1.70;;
11034;SDS011;5571;48.110;-1.706;2023-11-22T14:12:55;3.50;;;1.50;;
11034;SDS011;5571;48.110;-1.706;2023-11-22T14:15:25;4.25;;;1.65;;
11034;SDS011;5571;48.110;-1.706;2023-11-22T14:17:51;5.95;;;1.70;;
11034;SDS011;5571;48.110;-1.706;2023-11-22T14:20:17;5.65;;;1.83;;
11034;SDS011;5571;48.110;-1.706;2023-11-22T14:22:43;3.28;;;1.63;;
11034;SDS011;5571;48.110;-1.706;2023-11-22T14:25:09;4.57;;;1.95;;
11034;SDS011;5571;48.110;-1.706;2023-11-22T14:27:40;3.30;;;1.90;;
11034;SDS011;5571;48.110;-1.706;2023-11-22T14:30:07;3.47;;;1.90;;
11034;SDS011;5571;48.110;-1.706;2023-11-22T14:32:36;4.60;;;1.85;;
11034;SDS011;5571;48.110;-1.706;2023-11-22T14:35:02;5.18;;;1.77;;
11034;SDS011;5571;48.110;-1.706;2023-11-22T14:37:28;4.78;;;2.00;;
11034;SDS011;5571;48.110;-1.706;2023-11-22T14:39:55;10.07;;;2.30;;
11034;SDS011;5571;48.110;-1.706;2023-11-22T14:42:20;4.05;;;2.25;;
11034;SDS011;5571;48.110;-1.706;2023-11-22T14:44:46;3.78;;;2.20;;
11034;SDS011;5571;48.110;-1.706;2023-11-22T14:47:11;4.00;;;1.83;;
11034;SDS011;5571;48.110;-1.706;2023-11-22T14:49:41;4.80;;;1.98;;